sensor_id;sensor_type;location;lat;lon;timestamp;pressure;altitude;pressure_sealevel;temperature;humidity
18918;BME280;9591;52.742;13.650;2023-10-31T00:00:35;98984.81;;;31.94;26.23
18918;BME280;9591;52.742;13.650;2023-10-31T00:03:22;98958.22;;;32.13;25.75
18918;BME280;9591;52.742;13.650;2023-10-31T00:06:09;98952.13;;;31.99;25.99
18918;BME280;9591;52.742;13.650;2023-10-31T00:08:56;98931.00;;;32.18;25.47
18918;BME280;9591;52.742;13.650;2023-10-31T00:11:43;98923.81;;;32.35;25.78
18918;BME280;9591;52.742;13.650;2023-10-31T00:14:32;98904.56;;;31.82;26.55
18918;BME280;9591;52.742;13.650;2023-10-31T00:17:19;98903.22;;;31.11;27.07
18918;BME280;9591;52.742;13.650;2023-10-31T00:20:07;98905.53;;;31.14;27.09
18918;BME280;9591;52.742;13.650;2023-10-31T00:22:54;98911.47;;;31.05;27.26
18918;BME280;9591;52.742;13.650;2023-10-31T00:25:41;98928.31;;;31.63;26.58
18918;BME280;9591;52.742;13.650;2023-10-31T00:28:28;98943.91;;;31.62;26.89
18918;BME280;9591;52.742;13.650;2023-10-31T00:31:16;98947.34;;;31.76;26.67
18918;BME280;9591;52.742;13.650;2023-10-31T00:34:04;98943.97;;;31.56;26.92
18918;BME280;9591;52.742;13.650;2023-10-31T00:36:51;98951.97;;;31.57;26.74
18918;BME280;9591;52.742;13.650;2023-10-31T00:39:40;98942.09;;;30.88;27.59
18918;BME280;9591;52.742;13.650;2023-10-31T00:42:27;98951.44;;;31.67;26.68
18918;BME280;9591;52.742;13.650;2023-10-31T00:45:18;98941.78;;;32.01;26.55
18918;BME280;9591;52.742;13.650;2023-10-31T00:48:07;98942.38;;;32.03;26.58
18918;BME280;9591;52.742;13.650;2023-10-31T00:50:54;98936.63;;;31.75;26.65
18918;BME280;9591;52.742;13.650;2023-10-31T00:53:40;98932.66;;;32.19;26.24
18918;BME280;9591;52.742;13.650;2023-10-31T00:56:28;98940.38;;;32.10;26.04
18918;BME280;9591;52.742;13.650;2023-10-31T00:59:15;98932.41;;;32.39;25.61
18918;BME280;9591;52.742;13.650;2023-10-31T01:02:03;98933.94;;;32.35;25.89
18918;BME280;9591;52.742;13.650;2023-10-31T01:04:53;98919.69;;;31.84;26.44
18918;BME280;9591;52.742;13.650;2023-10-31T01:07:41;98911.06;;;31.62;26.58
18918;BME280;9591;52.742;13.650;2023-10-31T01:10:28;98909.56;;;31.67;27.04
18918;BME280;9591;52.742;13.650;2023-10-31T01:13:16;98898.78;;;31.90;26.39
18918;BME280;9591;52.742;13.650;2023-10-31T01:16:04;98895.81;;;31.18;27.43
18918;BME280;9591;52.742;13.650;2023-10-31T01:18:50;98903.69;;;32.00;26.80
18918;BME280;9591;52.742;13.650;2023-10-31T01:21:39;98916.50;;;31.69;27.19
18918;BME280;9591;52.742;13.650;2023-10-31T01:24:26;98921.03;;;31.57;26.83
18918;BME280;9591;52.742;13.650;2023-10-31T01:27:13;98913.75;;;32.47;25.89
18918;BME280;9591;52.742;13.650;2023-10-31T01:30:00;98900.25;;;32.04;26.47
18918;BME280;9591;52.742;13.650;2023-10-31T01:32:46;98890.34;;;31.37;27.48
18918;BME280;9591;52.742;13.650;2023-10-31T01:35:34;98877.19;;;31.45;27.43
18918;BME280;9591;52.742;13.650;2023-10-31T01:38:23;98879.09;;;31.63;26.73
18918;BME280;9591;52.742;13.650;2023-10-31T01:41:10;98869.97;;;31.51;27.44
18918;BME280;9591;52.742;13.650;2023-10-31T01:43:57;98867.00;;;31.52;27.35
18918;BME280;9591;52.742;13.650;2023-10-31T01:46:44;98856.75;;;31.48;27.04
18918;BME280;9591;52.742;13.650;2023-10-31T01:49:31;98847.50;;;31.49;27.39
18918;BME280;9591;52.742;13.650;2023-10-31T01:52:18;98836.38;;;31.62;26.98
18918;BME280;9591;52.742;13.650;2023-10-31T01:55:07;98827.66;;;31.72;27.21
18918;BME280;9591;52.742;13.650;2023-10-31T01:57:55;98819.44;;;31.53;27.13
18918;BME280;9591;52.742;13.650;2023-10-31T02:00:43;98825.75;;;31.72;27.14
18918;BME280;9591;52.742;13.650;2023-10-31T02:03:30;98842.47;;;31.64;27.28
18918;BME280;9591;52.742;13.650;2023-10-31T02:06:18;98833.44;;;31.27;27.80
18918;BME280;9591;52.742;13.650;2023-10-31T02:09:07;98827.09;;;31.63;27.39
18918;BME280;9591;52.742;13.650;2023-10-31T02:11:55;98814.59;;;31.55;26.93
18918;BME280;9591;52.742;13.650;2023-10-31T02:14:43;98820.06;;;31.37;27.42
18918;BME280;9591;52.742;13.650;2023-10-31T02:17:30;98822.06;;;31.30;27.46
18918;BME280;9591;52.742;13.650;2023-10-31T02:20:17;98819.59;;;31.58;27.39
18918;BME280;9591;52.742;13.650;2023-10-31T02:23:05;98821.69;;;31.26;27.92
18918;BME280;9591;52.742;13.650;2023-10-31T02:25:52;98823.91;;;31.66;27.13
18918;BME280;9591;52.742;13.650;2023-10-31T02:28:39;98817.13;;;31.39;27.44
18918;BME280;9591;52.742;13.650;2023-10-31T02:31:27;98804.22;;;31.27;27.98
18918;BME280;9591;52.742;13.650;2023-10-31T02:34:14;98799.13;;;31.31;27.43
18918;BME280;9591;52.742;13.650;2023-10-31T02:37:00;98786.75;;;31.28;27.92
18918;BME280;9591;52.742;13.650;2023-10-31T02:39:49;98785.28;;;31.44;27.36
18918;BME280;9591;52.742;13.650;2023-10-31T02:42:36;98758.78;;;31.26;27.77
18918;BME280;9591;52.742;13.650;2023-10-31T02:45:24;98771.78;;;31.31;27.39
18918;BME280;9591;52.742;13.650;2023-10-31T02:48:11;98769.72;;;31.26;28.03
18918;BME280;9591;52.742;13.650;2023-10-31T02:50:58;98766.06;;;31.33;27.83
18918;BME280;9591;52.742;13.650;2023-10-31T02:53:45;98746.19;;;31.25;28.01
18918;BME280;9591;52.742;13.650;2023-10-31T02:56:33;98739.41;;;31.16;27.90
18918;BME280;9591;52.742;13.650;2023-10-31T02:59:21;98735.34;;;30.82;28.12
18918;BME280;9591;52.742;13.650;2023-10-31T03:02:08;98745.31;;;30.95;28.09
18918;BME280;9591;52.742;13.650;2023-10-31T03:04:57;98764.13;;;31.21;27.79
18918;BME280;9591;52.742;13.650;2023-10-31T03:07:44;98763.53;;;31.19;27.54
18918;BME280;9591;52.742;13.650;2023-10-31T03:10:31;98758.66;;;31.21;27.82
18918;BME280;9591;52.742;13.650;2023-10-31T03:13:19;98756.63;;;31.17;27.51
18918;BME280;9591;52.742;13.650;2023-10-31T03:16:07;98755.47;;;31.24;27.99
18918;BME280;9591;52.742;13.650;2023-10-31T03:18:54;98753.91;;;31.17;27.58
18918;BME280;9591;52.742;13.650;2023-10-31T03:21:41;98754.53;;;31.30;27.53
18918;BME280;9591;52.742;13.650;2023-10-31T03:24:28;98756.22;;;31.32;27.56
18918;BME280;9591;52.742;13.650;2023-10-31T03:27:17;98744.41;;;31.79;27.26
18918;BME280;9591;52.742;13.650;2023-10-31T03:30:06;98735.91;;;31.39;27.37
18918;BME280;9591;52.742;13.650;2023-10-31T03:32:53;98735.41;;;31.30;27.96
18918;BME280;9591;52.742;13.650;2023-10-31T03:35:40;98734.72;;;31.65;27.21
18918;BME280;9591;52.742;13.650;2023-10-31T03:38:27;98719.47;;;32.11;26.89
18918;BME280;9591;52.742;13.650;2023-10-31T03:41:14;98725.13;;;31.44;27.47
18918;BME280;9591;52.742;13.650;2023-10-31T03:44:01;98727.19;;;31.90;27.26
18918;BME280;9591;52.742;13.650;2023-10-31T03:46:49;98743.06;;;31.40;27.70
18918;BME280;9591;52.742;13.650;2023-10-31T03:49:37;98742.06;;;31.35;27.89
18918;BME280;9591;52.742;13.650;2023-10-31T03:52:24;98745.41;;;31.37;27.63
18918;BME280;9591;52.742;13.650;2023-10-31T03:55:11;98742.13;;;31.46;27.52
18918;BME280;9591;52.742;13.650;2023-10-31T03:57:58;98744.34;;;31.68;27.53
18918;BME280;9591;52.742;13.650;2023-10-31T04:00:45;98743.25;;;31.87;27.44
18918;BME280;9591;52.742;13.650;2023-10-31T04:03:34;98738.50;;;31.94;27.12
18918;BME280;9591;52.742;13.650;2023-10-31T04:06:21;98739.00;;;32.03;26.81
18918;BME280;9591;52.742;13.650;2023-10-31T04:09:08;98743.63;;;32.02;26.54
18918;BME280;9591;52.742;13.650;2023-10-31T04:11:55;98746.06;;;32.45;26.37
18918;BME280;9591;52.742;13.650;2023-10-31T04:14:42;98733.56;;;32.38;26.02
18918;BME280;9591;52.742;13.650;2023-10-31T04:17:29;98739.59;;;32.05;26.86
18918;BME280;9591;52.742;13.650;2023-10-31T04:20:17;98741.91;;;31.78;26.81
18918;BME280;9591;52.742;13.650;2023-10-31T04:23:04;98736.72;;;32.00;26.58
18918;BME280;9591;52.742;13.650;2023-10-31T04:25:52;98734.59;;;32.02;26.63
18918;BME280;9591;52.742;13.650;2023-10-31T04:28:39;98737.53;;;31.88;26.77
18918;BME280;9591;52.742;13.650;2023-10-31T04:31:26;98736.69;;;31.76;27.13
18918;BME280;9591;52.742;13.650;2023-10-31T04:34:25;98744.25;;;31.14;28.48
18918;BME280;9591;52.742;13.650;2023-10-31T04:37:14;98735.78;;;31.64;27.43
18918;BME280;9591;52.742;13.650;2023-10-31T04:40:01;98729.78;;;31.25;27.81
18918;BME280;9591;52.742;13.650;2023-10-31T04:42:48;98728.81;;;31.50;27.85
18918;BME280;9591;52.742;13.650;2023-10-31T04:45:35;98726.72;;;31.93;26.94
18918;BME280;9591;52.742;13.650;2023-10-31T04:48:22;98726.47;;;31.83;27.34
18918;BME280;9591;52.742;13.650;2023-10-31T04:51:09;98735.50;;;31.06;27.74
18918;BME280;9591;52.742;13.650;2023-10-31T04:53:57;98724.47;;;31.60;27.41
18918;BME280;9591;52.742;13.650;2023-10-31T04:56:44;98724.59;;;31.66;27.46
18918;BME280;9591;52.742;13.650;2023-10-31T04:59:31;98719.69;;;31.56;27.49
18918;BME280;9591;52.742;13.650;2023-10-31T05:02:20;98682.50;;;31.07;27.99
18918;BME280;9591;52.742;13.650;2023-10-31T05:05:08;98715.63;;;31.47;27.58
18918;BME280;9591;52.742;13.650;2023-10-31T05:07:55;98704.94;;;31.27;28.21
18918;BME280;9591;52.742;13.650;2023-10-31T05:10:43;98709.47;;;31.03;28.45
18918;BME280;9591;52.742;13.650;2023-10-31T05:13:32;98707.72;;;31.09;28.25
18918;BME280;9591;52.742;13.650;2023-10-31T05:16:20;98696.84;;;31.80;27.18
18918;BME280;9591;52.742;13.650;2023-10-31T05:19:06;98705.88;;;31.21;28.16
18918;BME280;9591;52.742;13.650;2023-10-31T05:21:53;98716.31;;;31.72;27.54
18918;BME280;9591;52.742;13.650;2023-10-31T05:24:40;98726.13;;;31.61;27.38
18918;BME280;9591;52.742;13.650;2023-10-31T05:27:29;98726.13;;;31.32;28.38
18918;BME280;9591;52.742;13.650;2023-10-31T05:30:19;98720.03;;;31.48;28.13
18918;BME280;9591;52.742;13.650;2023-10-31T05:33:05;98720.25;;;31.46;27.75
18918;BME280;9591;52.742;13.650;2023-10-31T05:35:52;98717.22;;;31.06;28.34
18918;BME280;9591;52.742;13.650;2023-10-31T05:38:39;98722.22;;;31.09;28.18
18918;BME280;9591;52.742;13.650;2023-10-31T05:41:26;98659.72;;;30.64;28.39
18918;BME280;9591;52.742;13.650;2023-10-31T05:44:15;98716.88;;;31.33;28.12
18918;BME280;9591;52.742;13.650;2023-10-31T05:47:02;98722.78;;;31.29;28.14
18918;BME280;9591;52.742;13.650;2023-10-31T05:49:49;98725.34;;;31.43;27.97
18918;BME280;9591;52.742;13.650;2023-10-31T05:52:36;98720.66;;;31.32;28.21
18918;BME280;9591;52.742;13.650;2023-10-31T05:55:23;98717.69;;;31.33;28.10
18918;BME280;9591;52.742;13.650;2023-10-31T05:58:10;98726.66;;;31.40;28.16
18918;BME280;9591;52.742;13.650;2023-10-31T06:00:59;98727.41;;;31.77;27.88
18918;BME280;9591;52.742;13.650;2023-10-31T06:03:46;98717.66;;;31.81;27.82
18918;BME280;9591;52.742;13.650;2023-10-31T06:06:36;98715.63;;;31.47;28.32
18918;BME280;9591;52.742;13.650;2023-10-31T06:09:23;98726.97;;;31.62;28.31
18918;BME280;9591;52.742;13.650;2023-10-31T06:12:10;98733.56;;;31.43;28.25
18918;BME280;9591;52.742;13.650;2023-10-31T06:14:57;98734.16;;;31.45;28.34
18918;BME280;9591;52.742;13.650;2023-10-31T06:17:45;98731.25;;;32.00;28.10
18918;BME280;9591;52.742;13.650;2023-10-31T06:20:32;98730.63;;;31.86;27.71
18918;BME280;9591;52.742;13.650;2023-10-31T06:23:20;98738.00;;;31.85;28.13
18918;BME280;9591;52.742;13.650;2023-10-31T06:26:07;98747.78;;;31.63;28.56
18918;BME280;9591;52.742;13.650;2023-10-31T06:28:54;98740.78;;;31.67;28.21
18918;BME280;9591;52.742;13.650;2023-10-31T06:32:00;98743.00;;;31.58;28.16
18918;BME280;9591;52.742;13.650;2023-10-31T06:34:49;98749.78;;;31.86;28.10
18918;BME280;9591;52.742;13.650;2023-10-31T06:37:36;98748.72;;;31.57;28.73
18918;BME280;9591;52.742;13.650;2023-10-31T06:40:23;98750.56;;;31.45;28.73
18918;BME280;9591;52.742;13.650;2023-10-31T06:43:10;98754.78;;;31.59;28.49
18918;BME280;9591;52.742;13.650;2023-10-31T06:45:57;98757.91;;;31.92;28.19
18918;BME280;9591;52.742;13.650;2023-10-31T06:48:46;98761.75;;;31.73;28.28
18918;BME280;9591;52.742;13.650;2023-10-31T06:51:34;98768.13;;;31.85;27.81
18918;BME280;9591;52.742;13.650;2023-10-31T06:54:21;98774.81;;;31.41;28.42
18918;BME280;9591;52.742;13.650;2023-10-31T06:57:08;98775.34;;;31.80;27.80
18918;BME280;9591;52.742;13.650;2023-10-31T06:59:55;98769.59;;;31.03;29.10
18918;BME280;9591;52.742;13.650;2023-10-31T07:02:42;98776.25;;;31.25;28.42
18918;BME280;9591;52.742;13.650;2023-10-31T07:05:29;98775.66;;;31.23;29.41
18918;BME280;9591;52.742;13.650;2023-10-31T07:08:17;98776.72;;;30.86;29.97
18918;BME280;9591;52.742;13.650;2023-10-31T07:11:04;98782.09;;;31.29;29.16
18918;BME280;9591;52.742;13.650;2023-10-31T07:13:51;98782.13;;;31.11;29.18
18918;BME280;9591;52.742;13.650;2023-10-31T07:16:39;98781.66;;;31.80;28.12
18918;BME280;9591;52.742;13.650;2023-10-31T07:19:25;98791.16;;;31.11;29.41
18918;BME280;9591;52.742;13.650;2023-10-31T07:22:12;98786.44;;;30.82;29.77
18918;BME280;9591;52.742;13.650;2023-10-31T07:25:01;98791.78;;;30.45;30.14
18918;BME280;9591;52.742;13.650;2023-10-31T07:27:49;98794.81;;;30.62;30.10
18918;BME280;9591;52.742;13.650;2023-10-31T07:30:36;98798.41;;;31.54;28.94
18918;BME280;9591;52.742;13.650;2023-10-31T07:33:23;98801.81;;;31.19;29.21
18918;BME280;9591;52.742;13.650;2023-10-31T07:36:10;98804.09;;;32.01;28.65
18918;BME280;9591;52.742;13.650;2023-10-31T07:38:57;98801.94;;;30.88;30.54
18918;BME280;9591;52.742;13.650;2023-10-31T07:41:45;98807.09;;;30.96;30.56
18918;BME280;9591;52.742;13.650;2023-10-31T07:44:32;98807.44;;;31.73;28.96
18918;BME280;9591;52.742;13.650;2023-10-31T07:47:19;98804.66;;;31.91;29.03
18918;BME280;9591;52.742;13.650;2023-10-31T07:50:06;98808.53;;;30.30;31.18
18918;BME280;9591;52.742;13.650;2023-10-31T07:52:54;98815.34;;;30.89;30.28
18918;BME280;9591;52.742;13.650;2023-10-31T07:55:41;98823.56;;;30.89;30.61
18918;BME280;9591;52.742;13.650;2023-10-31T07:58:30;98822.50;;;31.45;29.78
18918;BME280;9591;52.742;13.650;2023-10-31T08:01:17;98832.53;;;31.51;29.21
18918;BME280;9591;52.742;13.650;2023-10-31T08:04:04;98820.06;;;29.18;32.72
18918;BME280;9591;52.742;13.650;2023-10-31T08:06:51;98823.16;;;30.36;30.97
18918;BME280;9591;52.742;13.650;2023-10-31T08:09:38;98839.69;;;30.73;30.49
18918;BME280;9591;52.742;13.650;2023-10-31T08:12:25;98839.09;;;30.39;30.63
18918;BME280;9591;52.742;13.650;2023-10-31T08:15:16;98838.03;;;30.72;29.65
18918;BME280;9591;52.742;13.650;2023-10-31T08:18:04;98845.47;;;29.63;31.35
18918;BME280;9591;52.742;13.650;2023-10-31T08:20:51;98842.41;;;30.48;30.15
18918;BME280;9591;52.742;13.650;2023-10-31T08:23:38;98848.44;;;30.00;30.64
18918;BME280;9591;52.742;13.650;2023-10-31T08:26:25;98850.78;;;29.90;30.82
18918;BME280;9591;52.742;13.650;2023-10-31T08:29:12;98846.19;;;30.47;29.92
18918;BME280;9591;52.742;13.650;2023-10-31T08:32:01;98856.28;;;30.96;29.33
18918;BME280;9591;52.742;13.650;2023-10-31T08:34:48;98871.78;;;31.02;28.69
18918;BME280;9591;52.742;13.650;2023-10-31T08:37:35;98881.88;;;29.82;29.99
18918;BME280;9591;52.742;13.650;2023-10-31T08:40:23;98881.56;;;30.67;28.95
18918;BME280;9591;52.742;13.650;2023-10-31T08:43:13;98889.81;;;30.53;29.47
18918;BME280;9591;52.742;13.650;2023-10-31T08:46:00;98886.22;;;29.96;30.42
18918;BME280;9591;52.742;13.650;2023-10-31T08:48:49;98901.78;;;30.59;29.05
18918;BME280;9591;52.742;13.650;2023-10-31T08:51:36;98906.53;;;29.56;30.06
18918;BME280;9591;52.742;13.650;2023-10-31T08:54:22;98907.72;;;28.95;30.54
18918;BME280;9591;52.742;13.650;2023-10-31T08:57:09;98900.09;;;29.44;30.03
18918;BME280;9591;52.742;13.650;2023-10-31T08:59:56;98906.13;;;30.35;29.02
18918;BME280;9591;52.742;13.650;2023-10-31T09:02:43;98918.88;;;30.16;28.94
18918;BME280;9591;52.742;13.650;2023-10-31T09:05:32;98910.16;;;30.32;29.14
18918;BME280;9591;52.742;13.650;2023-10-31T09:08:19;98913.28;;;30.68;28.21
18918;BME280;9591;52.742;13.650;2023-10-31T09:11:08;98906.94;;;30.74;27.97
18918;BME280;9591;52.742;13.650;2023-10-31T09:13:55;98898.91;;;30.79;27.79
18918;BME280;9591;52.742;13.650;2023-10-31T09:16:42;98915.06;;;30.80;27.62
18918;BME280;9591;52.742;13.650;2023-10-31T09:19:29;98922.03;;;30.45;28.33
18918;BME280;9591;52.742;13.650;2023-10-31T09:22:17;98936.69;;;30.50;28.20
18918;BME280;9591;52.742;13.650;2023-10-31T09:25:05;98924.47;;;30.59;27.46
18918;BME280;9591;52.742;13.650;2023-10-31T09:27:52;98927.03;;;31.47;26.82
18918;BME280;9591;52.742;13.650;2023-10-31T09:30:39;98939.94;;;30.97;27.23
18918;BME280;9591;52.742;13.650;2023-10-31T09:33:28;98928.75;;;30.17;28.32
18918;BME280;9591;52.742;13.650;2023-10-31T09:36:15;98938.88;;;29.97;28.25
18918;BME280;9591;52.742;13.650;2023-10-31T09:39:06;98939.16;;;29.82;28.62
18918;BME280;9591;52.742;13.650;2023-10-31T09:41:55;98943.72;;;30.02;28.06
18918;BME280;9591;52.742;13.650;2023-10-31T09:44:45;98956.47;;;30.14;28.05
18918;BME280;9591;52.742;13.650;2023-10-31T09:47:32;98949.31;;;30.20;27.52
18918;BME280;9591;52.742;13.650;2023-10-31T09:50:19;98952.00;;;30.58;27.01
18918;BME280;9591;52.742;13.650;2023-10-31T09:53:08;98954.75;;;30.83;26.87
18918;BME280;9591;52.742;13.650;2023-10-31T09:55:57;98962.84;;;29.88;27.51
18918;BME280;9591;52.742;13.650;2023-10-31T09:58:44;98959.03;;;29.45;28.32
18918;BME280;9591;52.742;13.650;2023-10-31T10:01:31;98955.63;;;29.49;27.83
18918;BME280;9591;52.742;13.650;2023-10-31T10:04:18;98965.13;;;30.74;26.51
18918;BME280;9591;52.742;13.650;2023-10-31T10:07:06;98955.13;;;30.61;26.78
18918;BME280;9591;52.742;13.650;2023-10-31T10:09:56;98979.91;;;30.91;26.63
18918;BME280;9591;52.742;13.650;2023-10-31T10:12:44;98984.34;;;30.23;27.27
18918;BME280;9591;52.742;13.650;2023-10-31T10:15:43;98980.81;;;29.31;28.52
18918;BME280;9591;52.742;13.650;2023-10-31T10:18:31;98982.66;;;29.64;27.92
18918;BME280;9591;52.742;13.650;2023-10-31T10:21:20;98981.69;;;28.92;28.42
18918;BME280;9591;52.742;13.650;2023-10-31T10:24:08;98995.06;;;29.47;26.84
18918;BME280;9591;52.742;13.650;2023-10-31T10:26:56;98993.22;;;30.12;26.99
18918;BME280;9591;52.742;13.650;2023-10-31T10:29:44;98989.72;;;31.67;24.81
18918;BME280;9591;52.742;13.650;2023-10-31T10:32:31;99007.56;;;29.81;27.06
18918;BME280;9591;52.742;13.650;2023-10-31T10:35:18;99003.41;;;28.72;27.98
18918;BME280;9591;52.742;13.650;2023-10-31T10:38:09;99002.00;;;29.29;27.39
18918;BME280;9591;52.742;13.650;2023-10-31T10:40:57;99005.03;;;29.92;26.95
18918;BME280;9591;52.742;13.650;2023-10-31T10:43:47;99008.81;;;31.30;25.86
18918;BME280;9591;52.742;13.650;2023-10-31T10:46:38;99003.09;;;30.44;25.83
18918;BME280;9591;52.742;13.650;2023-10-31T10:49:27;98994.78;;;30.71;25.69
18918;BME280;9591;52.742;13.650;2023-10-31T10:52:23;98973.81;;;30.64;25.47
18918;BME280;9591;52.742;13.650;2023-10-31T10:55:19;99003.66;;;30.28;25.82
18918;BME280;9591;52.742;13.650;2023-10-31T10:58:10;99005.78;;;29.02;27.04
18918;BME280;9591;52.742;13.650;2023-10-31T11:01:01;99009.53;;;29.47;26.72
18918;BME280;9591;52.742;13.650;2023-10-31T11:03:50;99006.28;;;30.03;25.91
18918;BME280;9591;52.742;13.650;2023-10-31T11:06:38;99003.59;;;30.73;25.62
18918;BME280;9591;52.742;13.650;2023-10-31T11:09:26;98995.81;;;29.87;26.64
18918;BME280;9591;52.742;13.650;2023-10-31T11:12:13;98993.78;;;30.27;26.21
18918;BME280;9591;52.742;13.650;2023-10-31T11:15:02;98985.94;;;32.23;23.83
18918;BME280;9591;52.742;13.650;2023-10-31T11:17:50;98982.63;;;31.84;23.78
18918;BME280;9591;52.742;13.650;2023-10-31T11:20:40;98981.50;;;31.49;24.58
18918;BME280;9591;52.742;13.650;2023-10-31T11:23:27;98987.25;;;30.28;26.26
18918;BME280;9591;52.742;13.650;2023-10-31T11:26:14;98995.69;;;31.39;25.12
18918;BME280;9591;52.742;13.650;2023-10-31T11:29:03;98979.81;;;31.48;25.10
18918;BME280;9591;52.742;13.650;2023-10-31T11:31:51;99007.69;;;31.38;24.85
18918;BME280;9591;52.742;13.650;2023-10-31T11:34:39;99006.56;;;31.46;24.40
18918;BME280;9591;52.742;13.650;2023-10-31T11:37:32;99014.69;;;31.96;24.21
18918;BME280;9591;52.742;13.650;2023-10-31T11:40:21;99012.25;;;32.06;24.38
18918;BME280;9591;52.742;13.650;2023-10-31T11:43:09;99012.25;;;31.87;23.92
18918;BME280;9591;52.742;13.650;2023-10-31T11:45:57;99013.63;;;30.41;25.82
18918;BME280;9591;52.742;13.650;2023-10-31T11:48:47;99014.38;;;30.54;25.95
18918;BME280;9591;52.742;13.650;2023-10-31T11:51:34;99013.31;;;32.53;24.00
18918;BME280;9591;52.742;13.650;2023-10-31T11:54:22;99027.16;;;30.98;24.82
18918;BME280;9591;52.742;13.650;2023-10-31T11:57:09;99033.47;;;31.92;24.06
18918;BME280;9591;52.742;13.650;2023-10-31T11:59:56;99037.66;;;31.02;25.35
18918;BME280;9591;52.742;13.650;2023-10-31T12:02:56;99033.13;;;31.63;25.11
18918;BME280;9591;52.742;13.650;2023-10-31T12:05:51;99037.19;;;29.64;26.96
18918;BME280;9591;52.742;13.650;2023-10-31T12:08:40;99037.94;;;30.49;26.78
18918;BME280;9591;52.742;13.650;2023-10-31T12:11:28;99038.31;;;30.65;26.03
18918;BME280;9591;52.742;13.650;2023-10-31T12:14:18;99043.69;;;31.10;25.84
18918;BME280;9591;52.742;13.650;2023-10-31T12:17:06;99039.31;;;29.35;26.88
18918;BME280;9591;52.742;13.650;2023-10-31T12:19:55;99053.97;;;29.67;26.18
18918;BME280;9591;52.742;13.650;2023-10-31T12:22:43;99014.22;;;30.49;25.73
18918;BME280;9591;52.742;13.650;2023-10-31T12:25:30;99060.03;;;29.76;26.17
18918;BME280;9591;52.742;13.650;2023-10-31T12:28:23;99060.31;;;30.77;25.65
18918;BME280;9591;52.742;13.650;2023-10-31T12:31:11;99052.50;;;31.62;24.87
18918;BME280;9591;52.742;13.650;2023-10-31T12:34:04;99061.97;;;32.39;23.73
18918;BME280;9591;52.742;13.650;2023-10-31T12:36:52;99049.81;;;31.30;25.07
18918;BME280;9591;52.742;13.650;2023-10-31T12:39:39;99069.34;;;31.34;24.96
18918;BME280;9591;52.742;13.650;2023-10-31T12:42:26;99066.22;;;30.74;25.75
18918;BME280;9591;52.742;13.650;2023-10-31T12:45:18;99083.94;;;30.00;26.36
18918;BME280;9591;52.742;13.650;2023-10-31T12:48:07;99079.69;;;30.24;25.83
18918;BME280;9591;52.742;13.650;2023-10-31T12:51:06;99074.94;;;30.89;24.92
18918;BME280;9591;52.742;13.650;2023-10-31T12:53:54;99082.75;;;30.34;25.83
18918;BME280;9591;52.742;13.650;2023-10-31T12:56:42;99084.94;;;31.34;24.65
18918;BME280;9591;52.742;13.650;2023-10-31T12:59:29;99097.69;;;30.83;24.69
18918;BME280;9591;52.742;13.650;2023-10-31T13:02:18;99106.28;;;30.36;24.71
18918;BME280;9591;52.742;13.650;2023-10-31T13:05:09;99103.59;;;31.18;24.40
18918;BME280;9591;52.742;13.650;2023-10-31T13:07:57;99096.97;;;31.26;24.14
18918;BME280;9591;52.742;13.650;2023-10-31T13:10:46;99107.63;;;32.27;23.27
18918;BME280;9591;52.742;13.650;2023-10-31T13:13:33;99107.69;;;31.27;24.32
18918;BME280;9591;52.742;13.650;2023-10-31T13:16:20;99104.28;;;29.91;25.66
18918;BME280;9591;52.742;13.650;2023-10-31T13:19:08;99120.25;;;29.81;26.40
18918;BME280;9591;52.742;13.650;2023-10-31T13:21:55;99120.25;;;29.22;27.28
18918;BME280;9591;52.742;13.650;2023-10-31T13:24:42;99127.16;;;30.75;25.15
18918;BME280;9591;52.742;13.650;2023-10-31T13:27:29;99138.13;;;31.06;24.79
18918;BME280;9591;52.742;13.650;2023-10-31T13:30:17;99140.84;;;31.69;24.06
18918;BME280;9591;52.742;13.650;2023-10-31T13:33:04;99148.06;;;31.57;24.07
18918;BME280;9591;52.742;13.650;2023-10-31T13:35:52;99146.00;;;32.02;23.58
18918;BME280;9591;52.742;13.650;2023-10-31T13:38:39;99155.81;;;28.87;26.52
18918;BME280;9591;52.742;13.650;2023-10-31T13:41:27;99153.22;;;30.71;25.54
18918;BME280;9591;52.742;13.650;2023-10-31T13:44:14;99160.97;;;30.16;25.60
18918;BME280;9591;52.742;13.650;2023-10-31T13:47:01;99157.41;;;29.95;26.47
18918;BME280;9591;52.742;13.650;2023-10-31T13:49:48;99153.91;;;28.88;27.33
18918;BME280;9591;52.742;13.650;2023-10-31T13:52:36;99150.03;;;30.80;25.35
18918;BME280;9591;52.742;13.650;2023-10-31T13:55:24;99155.94;;;29.86;27.26
18918;BME280;9591;52.742;13.650;2023-10-31T13:58:11;99167.47;;;29.75;27.00
18918;BME280;9591;52.742;13.650;2023-10-31T14:00:58;99167.47;;;29.75;27.39
18918;BME280;9591;52.742;13.650;2023-10-31T14:03:45;99186.97;;;29.52;27.92
18918;BME280;9591;52.742;13.650;2023-10-31T14:06:32;99193.69;;;29.96;27.46
18918;BME280;9591;52.742;13.650;2023-10-31T14:09:21;99199.28;;;30.47;27.30
18918;BME280;9591;52.742;13.650;2023-10-31T14:12:08;99221.84;;;30.10;27.60
18918;BME280;9591;52.742;13.650;2023-10-31T14:14:55;99225.56;;;30.35;27.67
18918;BME280;9591;52.742;13.650;2023-10-31T14:17:42;99230.38;;;30.46;27.78
18918;BME280;9591;52.742;13.650;2023-10-31T14:20:29;99234.81;;;29.61;28.74
18918;BME280;9591;52.742;13.650;2023-10-31T14:23:16;99212.16;;;29.61;28.62
18918;BME280;9591;52.742;13.650;2023-10-31T14:26:05;99252.66;;;30.43;27.64
18918;BME280;9591;52.742;13.650;2023-10-31T14:28:52;99252.84;;;30.55;27.43
18918;BME280;9591;52.742;13.650;2023-10-31T14:31:39;99256.63;;;30.54;27.85
18918;BME280;9591;52.742;13.650;2023-10-31T14:34:26;99264.22;;;29.79;28.08
18918;BME280;9591;52.742;13.650;2023-10-31T14:37:13;99261.19;;;29.34;29.07
18918;BME280;9591;52.742;13.650;2023-10-31T14:40:00;99260.91;;;30.17;27.75
18918;BME280;9591;52.742;13.650;2023-10-31T14:42:49;99268.16;;;30.76;27.36
18918;BME280;9591;52.742;13.650;2023-10-31T14:45:36;99278.53;;;30.27;27.74
18918;BME280;9591;52.742;13.650;2023-10-31T14:48:23;99292.38;;;29.99;27.69